Flight Track Log - Related Links

Times and Time Zones

All times are in EDT time to prevent confusion due to time zone crossing. See the SWA1887 flight status page for this flight to view local times or setup timezone preferences in your user account.

Time Position Orientation Groundspeed Altitude Reporting Facility
EDT Latitude Longitude Course Direction KTS MPH feet Rate Location/Type
Sun 10:05:18 AM 33.4310 -111.9980 86° East 148 170 2,100  Level FlightAware ADS-B
Sun 10:05:49 AM 33.4330 -111.9700 85° East 189 217 3,100 2,136 Climbing FlightAware ADS-B
Sun 10:06:17 AM 33.4360 -111.9380 84° East 212 244 4,200 2,687 Climbing FlightAware ADS-B
Sun 10:06:56 AM 33.4190 -111.9010 119° Southeast 220 253 6,100 3,000 Climbing FlightAware ADS-B
Sun 10:07:11 AM 33.4040 -111.9050 193° South 220 253 6,900 3,333 Climbing FlightAware ADS-B
Sun 10:07:23 AM 33.3950 -111.9140 220° Southwest 219 252 7,600 3,682 Climbing FlightAware ADS-B
Sun 10:07:55 AM 33.3720 -111.9410 224° Southwest 216 249 9,600 2,958 Climbing FlightAware ADS-B
Sun 10:08:34 AM 33.3480 -111.9820 235° Southwest 260 299 11,100 2,000 Climbing FlightAware ADS-B
Sun 10:09:19 AM 33.3130 -112.0440 236° Southwest 333 383 12,400 2,561 Climbing FlightAware ADS-B
Sun 10:09:56 AM 33.2810 -112.1010 236° Southwest 349 402 14,600 3,556 Climbing FlightAware ADS-B
Sun 10:10:40 AM 33.2390 -112.1750 236° Southwest 361 415 17,200 3,448 Climbing FlightAware ADS-B
Sun 10:11:23 AM 33.1990 -112.2460 236° Southwest 371 427 19,600 3,253 Climbing FlightAware ADS-B
Sun 10:12:03 AM 33.1600 -112.3150 236° Southwest 383 441 21,700 3,038 Climbing FlightAware ADS-B
Sun 10:12:42 AM 33.1210 -112.3850 236° Southwest 393 452 23,600 3,190 Climbing FlightAware ADS-B
Sun 10:13:22 AM 33.0800 -112.4570 236° Southwest 391 450 25,900 3,407 Climbing FlightAware ADS-B
Sun 10:14:03 AM 33.0390 -112.5280 235° Southwest 382 440 28,200 3,600 Climbing FlightAware ADS-B
Sun 10:14:42 AM 33.0010 -112.5950 236° Southwest 365 420 30,700 2,923 Climbing FlightAware ADS-B
Sun 10:15:21 AM 32.9660 -112.6600 237° Southwest 361 415 32,000 975 Climbing FlightAware ADS-B
Sun 10:16:02 AM 32.9480 -112.7390 255° West 359 413 32,000  Level FlightAware ADS-B
Sun 10:16:46 AM 32.9360 -112.8240 260° West 360 414 32,000  Level FlightAware ADS-B
Sun 10:17:26 AM 32.9250 -112.9040 261° West 360 414 32,000  Level FlightAware ADS-B
Sun 10:18:05 AM 32.9150 -112.9770 261° West 361 415 32,000  Level FlightAware ADS-B
Sun 10:18:37 AM 32.9090 -113.0270 262° West 360 414 32,000  Level FlightAware ADS-B
Sun 10:19:13 AM 32.9000 -113.0920 261° West 360 414 32,000  Level FlightAware ADS-B
Sun 10:19:39 AM 32.8930 -113.1440 261° West 360 414 32,000  Level FlightAware ADS-B
Sun 10:20:25 AM 32.8810 -113.2300 261° West 360 414 32,000  Level FlightAware ADS-B
Sun 10:21:09 AM 32.8680 -113.3180 260° West 360 414 32,000  Level FlightAware ADS-B
Sun 10:21:45 AM 32.8580 -113.3910 261° West 359 413 32,000  Level FlightAware ADS-B
Sun 10:22:26 AM 32.8470 -113.4690 260° West 358 412 32,000  Level FlightAware ADS-B
Sun 10:23:13 AM 32.8350 -113.5540 260° West 358 412 32,000  Level FlightAware ADS-B
Sun 10:23:55 AM 32.8230 -113.6450 261° West 358 412 32,000  Level FlightAware ADS-B
Sun 10:24:57 AM 32.8090 -113.7380 260° West 359 413 32,000  Level FlightAware ADS-B
Sun 10:25:30 AM 32.7970 -113.8270 261° West 358 412 32,000  Level FlightAware ADS-B
Sun 10:26:25 AM 32.7820 -113.9300 260° West 358 412 32,000  Level FlightAware ADS-B
Sun 10:27:03 AM 32.7750 -114.0230 265° West 360 414 32,000  Level FlightAware ADS-B
Sun 10:27:38 AM 32.7750 -114.0930 270° West 360 414 32,000  Level FlightAware ADS-B
Sun 10:28:23 AM 32.7740 -114.1810 269° West 359 413 32,000  Level FlightAware ADS-B
Sun 10:29:03 AM 32.7730 -114.2580 269° West 359 413 32,000  Level FlightAware ADS-B
Sun 10:29:29 AM 32.7720 -114.3080 269° West 359 413 32,000  Level FlightAware ADS-B
Sun 10:30:11 AM 32.7710 -114.3780 269° West 358 412 32,000  Level FlightAware ADS-B
Sun 10:30:59 AM 32.7700 -114.4760 269° West 360 414 32,000  Level FlightAware ADS-B
Sun 10:31:39 AM 32.7690 -114.5430 269° West 360 414 32,000  Level FlightAware ADS-B
Sun 10:32:15 AM 32.7680 -114.6040 269° West 360 414 32,000  Level FlightAware ADS-B
Sun 10:33:01 AM 32.7670 -114.6810 269° West 360 414 32,000  Level FlightAware ADS-B
Sun 10:33:50 AM 32.7660 -114.7640 269° West 360 414 32,000  Level FlightAware ADS-B
Sun 10:34:29 AM 32.7650 -114.8290 269° West 360 414 32,000  Level FlightAware ADS-B
Sun 10:34:54 AM 32.7640 -114.8710 268° West 360 414 32,000  Level FlightAware ADS-B
Sun 10:35:52 AM 32.7630 -114.9690 269° West 360 414 32,000  Level FlightAware ADS-B
Sun 10:36:29 AM 32.7620 -115.0310 269° West 360 414 32,000  Level FlightAware ADS-B
Sun 10:37:18 AM 32.7600 -115.1140 268° West 360 414 32,000  Level FlightAware ADS-B
Sun 10:37:58 AM 32.7590 -115.1810 269° West 360 414 32,000  Level FlightAware ADS-B
Sun 10:38:34 AM 32.7590 -115.2420 270° West 360 414 32,000 -4,310 Level FlightAware ADS-B
Sun 10:39:09 AM 32.7500 -115.4490 267° West 353 406 26,900 -4,045 Descending FlightAware ADS-B
Sun 10:40:03 AM 32.7500 -115.5560 270° West 350 403 26,000 -980 Descending FlightAware ADS-B
Sun 10:40:47 AM 32.7520 -115.6400 272° West 349 402 25,300 -966 Descending FlightAware ADS-B
Sun 10:41:30 AM 32.7540 -115.7230 272° West 357 411 24,600 -1,071 Descending FlightAware ADS-B
Sun 10:42:11 AM 32.7560 -115.8040 272° West 351 404 23,800 -1,590 Descending FlightAware ADS-B
Sun 10:42:53 AM 32.7580 -115.8840 272° West 340 391 22,400 -2,024 Descending FlightAware ADS-B
Sun 10:43:34 AM 32.7600 -115.9580 272° West 331 381 21,000 -2,096 Descending FlightAware ADS-B
Sun 10:44:16 AM 32.7620 -116.0340 272° West 326 375 19,500 -2,132 Descending FlightAware ADS-B
Sun 10:44:50 AM 32.7630 -116.0930 271° West 323 372 18,300 -2,154 Descending FlightAware ADS-B
Sun 10:45:34 AM 32.7640 -116.1740 271° West 320 368 16,700 -2,114 Descending FlightAware ADS-B
Sun 10:46:18 AM 32.7660 -116.2490 272° West 315 362 15,200 -1,953 Descending FlightAware ADS-B
Sun 10:47:00 AM 32.7620 -116.3210 266° West 308 354 13,900 -1,923 Descending FlightAware ADS-B
Sun 10:47:36 AM 32.7530 -116.3800 260° West 314 361 12,700 -1,976 Descending FlightAware ADS-B
Sun 10:48:22 AM 32.7420 -116.4580 261° West 310 357 11,200 -1,667 Descending FlightAware ADS-B
Sun 10:49:06 AM 32.7310 -116.5320 260° West 291 335 10,200 -1,083 Descending FlightAware ADS-B
Sun 10:49:34 AM 32.7250 -116.5740 260° West 270 311 9,900 -1,071 Descending FlightAware ADS-B
Sun 10:50:02 AM 32.7190 -116.6140 260° West 265 305 9,200 -1,393 Descending FlightAware ADS-B
Sun 10:50:30 AM 32.7130 -116.6550 260° West 263 303 8,600 -1,286 Descending FlightAware ADS-B
Sun 10:50:58 AM 32.7120 -116.6940 268° West 260 299 8,000 -1,444 Descending FlightAware ADS-B
Sun 10:51:24 AM 32.7100 -116.7310 266° West 257 296 7,300 -1,444 Descending FlightAware ADS-B
Sun 10:51:52 AM 32.7090 -116.7700 268° West 255 293 6,700 -1,179 Descending FlightAware ADS-B
Sun 10:52:20 AM 32.7080 -116.8100 268° West 249 287 6,200 -900 Descending FlightAware ADS-B
Sun 10:52:32 AM 32.7050 -116.8260 257° West 243 280 6,100 -1,091 Descending FlightAware ADS-B
Sun 10:53:04 AM 32.6930 -116.8650 250° West 244 281 5,400 -1,000 Descending FlightAware ADS-B
Sun 10:53:32 AM 32.6830 -116.9000 251° West 231 266 5,100 -1,000 Descending FlightAware ADS-B
Sun 10:53:58 AM 32.6740 -116.9300 250° West 236 272 4,500 -1,286 Descending FlightAware ADS-B
Sun 10:54:28 AM 32.6800 -116.9690 280° West 223 257 3,900 -1,241 Descending FlightAware ADS-B
Sun 10:54:56 AM 32.6880 -117.0010 287° West 214 246 3,300 -1,269 Descending FlightAware ADS-B
Sun 10:55:20 AM 32.6940 -117.0270 285° West 196 226 2,800 -1,091 Descending FlightAware ADS-B
Sun 10:55:51 AM 32.7010 -117.0560 286° West 181 208 2,300 -1,000 Descending FlightAware ADS-B
Sun 10:56:20 AM 32.7080 -117.0850 286° West 175 201 1,800 -947 Descending FlightAware ADS-B
Sun 10:56:48 AM 32.7140 -117.1080 287° West 147 169 1,400 -889 Descending FlightAware ADS-B
Sun 10:57:14 AM 32.7190 -117.1280 287° West 135 155 1,000 -750 Descending FlightAware ADS-B
Sun 10:57:44 AM 32.7230 -117.1480 283° West 128 147 700 -692 Descending FlightAware ADS-B
Sun 10:58:06 AM 32.7270 -117.1630 288° West 134 154 400 -811 Descending FlightAware ADS-B
Sun 10:58:21 AM 32.7290 -117.1730 283° West 132 152 200 -800 Descending FlightAware ADS-B
Sun 10:58:52 AM 32.7340 -117.1930 287° West 78 90 -387 Descending FlightAware ADS-B
Sun 10:59:34 AM 32.7340 -117.1980 270° West 32 37  Level FlightAware ADS-B
Sun 10:59:50 AM 32.7340 -117.1970 90° East 25 29  Level FlightAware ADS-B
Sun 11:00:09 AM 32.7330 -117.1970 180° South 13 15  Level FlightAware ADS-B
Sun 11:00:24 AM 32.7330 -117.1960 90° East  Level FlightAware ADS-B
Sun 11:06:00 AM 32.7333 -117.1833 281° West  Level FlightAware Approximate
Sun 11:07:00 AM 32.7336 -117.1897 281° West  Level Estimated

Login

Don't have an account? Register now (free) for customized features, flight alerts, and more!